Echola, AL

3:03 PM CDT on August 22, 2014 (GMT -0500)
Bethany | Change Station
CLOSE
Current Station
Personal Weather Station
Location: Buhl, AL
Elevation: 367 ft
Nearby Weather Stations
Active Advisory: Heat Advisory

Elev 367 ft 33.32 °N, 87.74 °W | Updated 3 minutes ago

Scattered Clouds
Scattered Clouds
99.0 °F
Feels Like 109 °F
N
0.0
Wind Variable Wind from North
Gusts 0.0 mph

Today
High -- | Low -- °F
--% Chance of Precip.
Yesterday
High -- | Low -- °F
Precip. -- in
6:18 AM 7:28 PM
Waning Crescent, 7% visible
Pressure 30.03 in
Visibility 10.0 miles
Clouds Scattered Clouds 6000 ft
Heat Index 109 °F
Dew Point 73 °F
Humidity 43%
Rainfall 0.00 in
Snow Depth Not available.
UV 7 out of 12
Pollen 9.10 out of 12
Ozone Good
PM2.5 Good
Flu Activity Not available.
METAR KTCL 221953Z VRB05KT 10SM SCT060 36/21 A3004 RMK AO2 SLP169 T03560206

More Conditions Fewer Conditions

Pressure 30.03 in
Visibility 10.0 miles
Clouds Scattered Clouds 6000 ft
Heat Index 109 °F
Dew Point 73 °F
Humidity 43%
Rainfall 0.00 in
Snow Depth Not available.
UV 7 out of 12
Pollen 9.10 out of 12
Ozone Good
PM2.5 Good
Flu Activity Not available.
METAR KTCL 221953Z VRB05KT 10SM SCT060 36/21 A3004 RMK AO2 SLP169 T03560206

More Conditions Fewer Conditions

10-Day Weather Forecast

Almanac

Astronomy

Aug. 22, 2014 Rise Set
Actual Time 6:18 AM CDT 7:28 PM CDT
Civil Twilight 5:52 AM CDT 7:54 PM CDT
Nautical Twilight 5:22 AM CDT 8:25 PM CDT
Astronomical Twilight 4:50 AM CDT 8:56 PM CDT
Moon 3:44 AM CDT 5:34 PM CDT
Length of Visible Light 14h 01m
Length of Day
13h 10m
Tomorrow will be 1m 53s shorter.
Waning Crescent, 7% of the Moon is Illuminated
Today
Waning Crescent
Aug 25
New
Sep 2
First Quarter
Sep 8
Full
Sep 15
Last Quarter

Today's Extremes

State Highs State Lows

Community

WunderPhotos

Upload Photos

1,746,239 photos uploaded!

Nearby

Air Quality

  Air Quality AQ Index Pollutant
Yesterday Good
PM10
Yesterday Good
OZONE
Current Good
PM2.5
Current Good
OZONE
Friday Moderate
PM2.5
Friday Good
OZONE
Saturday Moderate
PM2.5
Saturday Good
OZONE
Sunday Moderate
PM2.5
Sunday Good
OZONE
Monday Moderate
PM2.5
Monday Good
OZONE

Snow Depth

Station Depth Elevation
No new snow has been reported.

Earthquake Activity

City Distance Mag. Time & Date
No recent earthquake activity has been reported nearby.
Minimum magnitude displayed is 2.5.

Coastal Water Temperatures

Place Temperature
No Stations Reporting

Nearby Weather Stations